Stinson Beach, CA (94970)

10:31 PM PST am 19. Dezember 2014 (GMT -0800)
Blithedale Canyon | Change Station
CLOSE
Current Station
Persönliche Wetterstationen
Location: Mill Valley, CA
Höhe: 190 ft
Wetterstationen in der Umgebung

Höhe 190 ft 37.91 °N, 122.55 °W | Updated 12 minutes ago

Bedeckt
Bedeckt
52.7 °F
gefühlte 52.7 °F
N
0.0
Wind Wechselnd Wind aus Süd
Gusts 0.0 mph

Heute
Max. -- | schwach -- °F
--% Regenrisiko
Gestern
Max. -- | schwach -- °F
Precip. -- inch
7:21 AM 4:53 PM
Letztes Viertel, 4% visible
Druck 30.14 inch
Sichtweite 8.0 Meilen
Wolken Wolkig 800 ft
Wolkig 1500 ft
Bedeckt 2800 ft
Taupunkt 52 °F
Feuchtigkeit 97%
Regen 1.36 inch
Schneehöhe Nicht verfügbar..
UV 0 von 12
Pollen 2.00 von 12
Luftqualität Nicht verfügbar..
Flu Activity Nicht verfügbar..
SPECI KSFO 200613Z 14003KT 8SM BKN008 BKN015 OVC028 14/14 A3014 RMK AO2

More Conditions Fewer Conditions

Druck 30.14 inch
Sichtweite 8.0 Meilen
Wolken Wolkig 800 ft
Wolkig 1500 ft
Bedeckt 2800 ft
Taupunkt 52 °F
Feuchtigkeit 97%
Regen 1.36 inch
Schneehöhe Nicht verfügbar..
UV 0 von 12
Pollen 2.00 von 12
Luftqualität Nicht verfügbar..
Flu Activity Nicht verfügbar..
SPECI KSFO 200613Z 14003KT 8SM BKN008 BKN015 OVC028 14/14 A3014 RMK AO2

More Conditions Fewer Conditions

10-Day Weather Forecast

Almanac

Astronomie

Dec. 19, 2014 Aufgang Untergang
Genaue Zeit
Bürgerliche Dämmerung
Nautische Dämmerung
Astronomische Dämmerung
Mond
Länge des sichtbaren Lichts
Tageslänge
Tomorrow will be .
, % of the Moon is Illuminated

Heutige Rekorde

State Highs State Lows

Community

WunderPhotos

Upload Photos

1,779,145 Fotos hochgeladen!

WunderBlogs® & News

Nearby

Luftqualität

  Luftqualität LQ Index Schadstoff
Not available.

Schneehöhe

Station Depth Höhe

Erdbebenaktivität

Stadt Distance Mag. Time & Date
Minimum magnitude displayed is 2.5.

küstennahe Wassertemperaturen

Ort Temperatur

Wetterstationen in der Umgebung